createdAt,value
2022-10-07T00:02:11.966Z,3.50
2022-10-07T00:04:45.155Z,4.05
2022-10-07T00:07:12.713Z,4.22
2022-10-07T00:09:39.875Z,3.55
2022-10-07T00:12:07.027Z,4.30
2022-10-07T00:14:34.362Z,3.90
2022-10-07T00:17:01.630Z,4.28
2022-10-07T00:19:28.894Z,4.10
2022-10-07T00:21:56.099Z,3.92
2022-10-07T00:24:23.219Z,4.53
2022-10-07T00:26:50.373Z,4.60
2022-10-07T00:29:17.526Z,4.22
2022-10-07T00:31:44.781Z,4.35
2022-10-07T00:34:12.440Z,4.32
2022-10-07T00:36:39.807Z,4.13
2022-10-07T00:39:08.905Z,5.10
2022-10-07T00:41:43.700Z,5.18
2022-10-07T00:44:29.623Z,4.90
2022-10-07T00:46:56.927Z,4.03
2022-10-07T00:49:24.064Z,5.32
2022-10-07T00:51:51.883Z,4.43
2022-10-07T00:54:19.954Z,4.47
2022-10-07T00:56:47.851Z,4.60
2022-10-07T00:59:16.375Z,5.13
2022-10-07T01:01:43.571Z,4.63
2022-10-07T01:04:11.883Z,6.40
2022-10-07T01:06:39.376Z,5.35
2022-10-07T01:09:10.056Z,4.78
2022-10-07T01:11:43.340Z,4.63
2022-10-07T01:14:10.783Z,4.93
2022-10-07T01:16:38.000Z,5.50
2022-10-07T01:19:14.301Z,5.20
2022-10-07T01:21:51.024Z,5.57
2022-10-07T01:24:25.573Z,5.20
2022-10-07T01:27:01.873Z,5.70
2022-10-07T01:29:37.607Z,4.95
2022-10-07T01:32:07.445Z,4.70
2022-10-07T01:34:35.404Z,5.38
2022-10-07T01:37:03.585Z,5.13
2022-10-07T01:39:32.969Z,5.80
2022-10-07T01:42:00.520Z,5.40
2022-10-07T01:44:30.988Z,5.35
2022-10-07T01:46:59.254Z,5.20
2022-10-07T01:49:26.738Z,5.13
2022-10-07T01:52:02.612Z,5.35
2022-10-07T01:54:32.741Z,5.35
2022-10-07T01:57:10.973Z,4.90
2022-10-07T01:59:44.199Z,4.78
2022-10-07T02:02:14.156Z,5.20
2022-10-07T02:04:41.319Z,4.80
2022-10-07T02:07:28.236Z,4.88
2022-10-07T02:10:13.449Z,4.53
2022-10-07T02:12:43.332Z,4.78
2022-10-07T02:15:24.485Z,5.28
2022-10-07T02:17:59.897Z,5.22
2022-10-07T02:22:56.153Z,5.35
2022-10-07T02:25:24.532Z,5.72
2022-10-07T02:27:53.489Z,5.10
2022-10-07T02:30:21.167Z,5.25
2022-10-07T02:32:56.014Z,4.85
2022-10-07T02:35:32.492Z,4.15
2022-10-07T02:38:01.878Z,4.72
2022-10-07T02:40:35.839Z,6.07
2022-10-07T02:43:05.070Z,5.25
2022-10-07T02:45:32.209Z,4.93
2022-10-07T02:48:15.349Z,5.22
2022-10-07T02:50:44.287Z,5.68
2022-10-07T02:53:13.653Z,4.90
2022-10-07T02:55:41.449Z,4.60
2022-10-07T02:58:09.447Z,4.53
2022-10-07T03:00:38.771Z,4.70
2022-10-07T03:03:06.323Z,4.93
2022-10-07T03:05:35.140Z,5.10
2022-10-07T03:08:04.158Z,5.00
2022-10-07T03:10:31.329Z,5.00
2022-10-07T03:12:58.525Z,4.70
2022-10-07T03:15:25.962Z,4.70
2022-10-07T03:17:53.321Z,5.30
2022-10-07T03:20:20.477Z,4.63
2022-10-07T03:22:47.640Z,4.68
2022-10-07T03:25:15.328Z,4.45
2022-10-07T03:27:43.201Z,6.63
2022-10-07T03:30:11.235Z,4.95
2022-10-07T03:32:41.503Z,4.07
2022-10-07T03:35:09.050Z,4.70
2022-10-07T03:37:37.049Z,4.45
2022-10-07T03:40:04.897Z,5.07
2022-10-07T03:42:32.194Z,4.57
2022-10-07T03:45:00.115Z,4.95
2022-10-07T03:47:27.478Z,6.40
2022-10-07T03:49:55.267Z,4.13
2022-10-07T03:52:22.432Z,4.40
2022-10-07T03:54:49.593Z,4.75
2022-10-07T03:57:35.464Z,4.70
2022-10-07T04:00:02.914Z,4.80
2022-10-07T04:02:30.117Z,4.63
2022-10-07T04:04:57.514Z,5.00
2022-10-07T04:07:24.663Z,5.10
2022-10-07T04:09:51.797Z,5.38
2022-10-07T04:12:18.947Z,4.65
2022-10-07T04:14:46.197Z,4.65
2022-10-07T04:17:13.368Z,4.30
2022-10-07T04:19:40.574Z,4.88
2022-10-07T04:22:08.928Z,4.80
2022-10-07T04:24:36.542Z,4.53
2022-10-07T04:27:05.096Z,4.68
2022-10-07T04:29:36.744Z,4.38
2022-10-07T04:32:05.729Z,5.55
2022-10-07T04:34:32.874Z,4.05
2022-10-07T04:37:01.368Z,4.93
2022-10-07T04:39:48.919Z,4.97
2022-10-07T04:42:34.567Z,4.70
2022-10-07T04:45:01.696Z,4.85
2022-10-07T04:47:28.864Z,5.82
2022-10-07T04:49:55.993Z,4.70
2022-10-07T04:52:23.266Z,4.43
2022-10-07T04:54:51.781Z,4.88
2022-10-07T04:57:18.943Z,5.10
2022-10-07T04:59:46.293Z,4.63
2022-10-07T05:02:13.846Z,5.38
2022-10-07T05:04:41.101Z,5.47
2022-10-07T05:07:08.706Z,5.15
2022-10-07T05:09:35.837Z,5.25
2022-10-07T05:12:03.036Z,4.38
2022-10-07T05:14:30.204Z,4.97
2022-10-07T05:16:57.353Z,5.05
2022-10-07T05:19:24.599Z,4.95
2022-10-07T05:21:51.720Z,4.90
2022-10-07T05:24:18.862Z,5.07
2022-10-07T05:26:46.017Z,5.18
2022-10-07T05:29:13.203Z,4.82
2022-10-07T05:31:40.449Z,4.60
2022-10-07T05:34:08.115Z,5.07
2022-10-07T05:36:35.880Z,5.40
2022-10-07T05:39:03.067Z,4.55
2022-10-07T05:41:30.195Z,5.22
2022-10-07T05:43:57.361Z,5.88
2022-10-07T05:46:24.584Z,4.93
2022-10-07T05:48:52.784Z,4.70
2022-10-07T05:51:23.470Z,5.47
2022-10-07T05:53:53.906Z,5.38
2022-10-07T05:56:24.098Z,4.57
2022-10-07T05:58:51.615Z,4.88
2022-10-07T06:01:20.532Z,4.80
2022-10-07T06:03:52.095Z,4.65
2022-10-07T06:06:19.800Z,5.50
2022-10-07T06:08:47.589Z,4.80
2022-10-07T06:11:34.582Z,5.72
2022-10-07T06:14:01.811Z,6.05
2022-10-07T06:16:29.091Z,5.63
2022-10-07T06:18:56.935Z,5.00
2022-10-07T06:21:28.065Z,5.60
2022-10-07T06:23:56.512Z,4.88
2022-10-07T06:26:24.058Z,4.95
2022-10-07T06:28:51.387Z,5.55
2022-10-07T06:31:25.932Z,5.40
2022-10-07T06:33:53.236Z,4.65
2022-10-07T06:36:20.881Z,4.47
2022-10-07T06:38:49.145Z,5.82
2022-10-07T06:41:16.743Z,5.57
2022-10-07T06:43:44.067Z,5.55
2022-10-07T06:46:14.431Z,5.30
2022-10-07T06:48:42.876Z,5.18
2022-10-07T06:51:13.395Z,5.40
2022-10-07T06:53:40.553Z,5.35
2022-10-07T06:56:08.995Z,5.47
2022-10-07T06:58:36.865Z,4.75
2022-10-07T07:01:04.454Z,4.85
2022-10-07T07:03:31.669Z,5.05
2022-10-07T07:05:59.061Z,5.82
2022-10-07T07:08:34.588Z,5.25
2022-10-07T07:11:26.123Z,5.18
2022-10-07T07:13:54.286Z,5.10
2022-10-07T07:16:21.793Z,6.43
2022-10-07T07:18:53.228Z,5.65
2022-10-07T07:21:20.721Z,5.30
2022-10-07T07:23:47.877Z,4.90
2022-10-07T07:26:15.338Z,4.88
2022-10-07T07:28:42.569Z,5.63
2022-10-07T07:31:10.825Z,5.13
2022-10-07T07:33:38.442Z,4.78
2022-10-07T07:36:16.484Z,4.93
2022-10-07T07:38:44.174Z,6.25
2022-10-07T07:41:11.377Z,6.28
2022-10-07T07:43:38.940Z,4.80
2022-10-07T07:46:06.155Z,4.93
2022-10-07T07:48:33.338Z,5.05
2022-10-07T07:51:00.588Z,4.72
2022-10-07T07:53:27.716Z,5.18
2022-10-07T07:55:58.157Z,4.70
2022-10-07T07:58:25.713Z,4.03
2022-10-07T08:01:03.376Z,4.63
2022-10-07T08:03:30.909Z,4.05
2022-10-07T08:06:01.826Z,4.32
2022-10-07T08:08:30.150Z,3.80
2022-10-07T08:10:57.824Z,3.88
2022-10-07T08:13:24.961Z,4.68
2022-10-07T08:15:57.007Z,3.90
2022-10-07T08:18:24.355Z,4.25
2022-10-07T08:20:58.627Z,3.53
2022-10-07T08:23:26.967Z,3.50
2022-10-07T08:25:55.393Z,3.55
2022-10-07T08:28:22.870Z,3.38
2022-10-07T08:30:50.927Z,3.63
2022-10-07T08:33:18.643Z,3.40
2022-10-07T08:35:52.876Z,3.70
2022-10-07T08:38:20.086Z,3.22
2022-10-07T08:40:48.868Z,2.90
2022-10-07T08:43:16.420Z,3.63
2022-10-07T08:45:43.818Z,3.78
2022-10-07T08:48:15.785Z,3.50
2022-10-07T08:50:45.719Z,3.65
2022-10-07T08:53:20.457Z,3.47
2022-10-07T08:55:52.486Z,3.45
2022-10-07T08:58:22.869Z,2.92
2022-10-07T09:00:56.272Z,3.13
2022-10-07T09:03:31.045Z,3.58
2022-10-07T09:05:59.568Z,3.65
2022-10-07T09:08:32.984Z,3.25
2022-10-07T09:11:15.753Z,3.30
2022-10-07T09:14:06.109Z,3.20
2022-10-07T09:16:36.857Z,2.75
2022-10-07T09:19:04.768Z,2.60
2022-10-07T09:21:41.605Z,3.65
2022-10-07T09:24:23.223Z,3.60
2022-10-07T09:26:55.135Z,3.38
2022-10-07T09:29:23.775Z,3.20
2022-10-07T09:31:50.937Z,3.05
2022-10-07T09:34:25.630Z,4.10
2022-10-07T09:37:13.043Z,2.88
2022-10-07T09:39:40.773Z,3.40
2022-10-07T09:42:09.744Z,2.88
2022-10-07T09:44:37.259Z,2.80
2022-10-07T09:47:14.277Z,2.65
2022-10-07T09:49:43.280Z,2.95
2022-10-07T09:52:10.930Z,3.55
2022-10-07T09:54:38.352Z,2.65
2022-10-07T09:57:06.310Z,2.58
2022-10-07T09:59:35.149Z,2.70
2022-10-07T10:02:04.602Z,2.45
2022-10-07T10:04:33.636Z,2.90
2022-10-07T10:07:21.052Z,2.40
2022-10-07T10:10:00.646Z,3.42
2022-10-07T10:12:27.883Z,2.88
2022-10-07T10:14:56.423Z,2.67
2022-10-07T10:17:39.328Z,2.97
2022-10-07T10:20:24.971Z,2.20
2022-10-07T10:22:52.946Z,2.65
2022-10-07T10:25:44.266Z,2.80
2022-10-07T10:28:19.103Z,2.78
2022-10-07T10:30:54.870Z,4.03
2022-10-07T10:33:30.386Z,2.88
2022-10-07T10:36:06.095Z,2.67
2022-10-07T10:38:39.796Z,2.30
2022-10-07T10:41:13.797Z,2.35
2022-10-07T10:43:55.925Z,2.53
2022-10-07T10:46:26.215Z,2.83
2022-10-07T10:49:02.137Z,2.53
2022-10-07T10:51:42.466Z,3.85
2022-10-07T10:54:15.723Z,2.45
2022-10-07T10:57:12.126Z,2.78
2022-10-07T10:59:58.004Z,2.42
2022-10-07T11:02:43.814Z,2.40
2022-10-07T11:05:20.085Z,2.40
2022-10-07T11:07:50.480Z,2.42
2022-10-07T11:10:29.752Z,2.60
2022-10-07T11:12:58.941Z,2.50
2022-10-07T11:15:26.094Z,2.78
2022-10-07T11:17:55.224Z,2.63
2022-10-07T11:20:30.454Z,2.35
2022-10-07T11:23:06.267Z,2.42
2022-10-07T11:25:43.488Z,2.78
2022-10-07T11:28:24.889Z,2.33
2022-10-07T11:30:58.098Z,2.90
2022-10-07T11:33:32.177Z,2.53
2022-10-07T11:36:03.501Z,2.30
2022-10-07T11:38:33.717Z,2.95
2022-10-07T11:41:25.163Z,2.97
2022-10-07T11:43:56.514Z,2.22
2022-10-07T11:46:28.798Z,2.15
2022-10-07T11:48:55.992Z,1.90
2022-10-07T11:51:31.177Z,2.50
2022-10-07T11:56:26.747Z,2.28
2022-10-07T11:59:00.379Z,2.10
2022-10-07T12:01:29.003Z,3.25
2022-10-07T12:04:02.152Z,2.30
2022-10-07T12:06:29.411Z,1.90
2022-10-07T12:08:56.540Z,2.28
2022-10-07T12:11:24.629Z,2.85
2022-10-07T12:13:53.393Z,2.58
2022-10-07T12:16:32.601Z,2.25
2022-10-07T12:19:10.491Z,2.58
2022-10-07T12:22:09.853Z,2.40
2022-10-07T12:24:38.410Z,2.20
2022-10-07T12:27:24.481Z,2.50
2022-10-07T12:29:58.880Z,1.85
2022-10-07T12:32:46.294Z,2.03
2022-10-07T12:35:35.028Z,2.53
2022-10-07T12:38:11.297Z,2.47
2022-10-07T12:40:38.906Z,2.70
2022-10-07T12:43:45.149Z,2.75
2022-10-07T12:46:18.731Z,2.63
2022-10-07T12:48:47.720Z,2.45
2022-10-07T12:51:22.636Z,2.17
2022-10-07T12:53:51.824Z,2.47
2022-10-07T12:56:21.485Z,2.53
2022-10-07T12:59:19.493Z,2.75
2022-10-07T13:02:08.110Z,2.50
2022-10-07T13:04:48.032Z,2.88
2022-10-07T13:07:21.365Z,2.45
2022-10-07T13:09:48.543Z,3.28
2022-10-07T13:12:24.550Z,3.08
2022-10-07T13:14:57.487Z,2.40
2022-10-07T13:17:27.748Z,2.97
2022-10-07T13:20:01.078Z,2.72
2022-10-07T13:22:28.316Z,2.60
2022-10-07T13:24:57.034Z,2.20
2022-10-07T13:27:28.650Z,2.47
2022-10-07T13:29:56.995Z,2.65
2022-10-07T13:32:30.302Z,2.15
2022-10-07T13:34:58.421Z,2.22
2022-10-07T13:37:36.082Z,2.25
2022-10-07T13:40:21.920Z,2.50
2022-10-07T13:45:16.457Z,3.13
2022-10-07T13:47:46.931Z,2.38
2022-10-07T13:50:18.474Z,2.20
2022-10-07T13:52:47.212Z,2.30
2022-10-07T13:55:26.699Z,2.70
2022-10-07T13:57:57.222Z,2.35
2022-10-07T14:00:24.968Z,2.58
2022-10-07T14:02:52.681Z,2.40
2022-10-07T14:05:22.918Z,2.15
2022-10-07T14:07:57.250Z,2.00
2022-10-07T14:10:25.953Z,2.90
2022-10-07T14:12:58.053Z,1.90
2022-10-07T14:15:26.361Z,2.97
2022-10-07T14:17:55.141Z,2.50
2022-10-07T14:20:30.471Z,2.70
2022-10-07T14:25:29.119Z,2.53
2022-10-07T14:27:59.162Z,2.58
2022-10-07T14:30:55.803Z,2.03
2022-10-07T14:33:50.880Z,2.45
2022-10-07T14:36:19.888Z,2.22
2022-10-07T14:38:48.633Z,2.97
2022-10-07T14:41:16.937Z,2.38
2022-10-07T14:43:45.802Z,2.10
2022-10-07T14:46:21.203Z,2.50
2022-10-07T14:48:49.268Z,2.50
2022-10-07T14:51:18.166Z,2.47
2022-10-07T14:53:49.102Z,2.28
2022-10-07T14:56:20.554Z,2.90
2022-10-07T14:58:47.672Z,2.42
2022-10-07T15:01:14.885Z,2.25
2022-10-07T15:03:42.068Z,2.53
2022-10-07T15:06:09.285Z,2.40
2022-10-07T15:08:36.726Z,2.05
2022-10-07T15:11:06.171Z,2.30
2022-10-07T15:13:33.320Z,2.40
2022-10-07T15:16:00.521Z,2.55
2022-10-07T15:18:27.703Z,2.35
2022-10-07T15:20:56.042Z,2.53
2022-10-07T15:23:23.939Z,2.05
2022-10-07T15:25:52.879Z,2.63
2022-10-07T15:28:20.214Z,2.25
2022-10-07T15:30:47.461Z,2.30
2022-10-07T15:33:14.927Z,2.58
2022-10-07T15:35:42.145Z,2.35
2022-10-07T15:38:09.478Z,2.20
2022-10-07T15:40:51.469Z,2.35
2022-10-07T15:43:18.799Z,1.73
2022-10-07T15:45:46.073Z,2.42
2022-10-07T15:48:13.308Z,2.42
2022-10-07T15:50:46.045Z,2.40
2022-10-07T15:53:14.773Z,2.40
2022-10-07T15:55:49.766Z,2.50
2022-10-07T15:58:17.839Z,2.85
2022-10-07T16:00:45.628Z,2.92
2022-10-07T16:03:12.926Z,2.75
2022-10-07T16:05:40.064Z,2.00
2022-10-07T16:08:07.297Z,2.25
2022-10-07T16:10:36.999Z,2.17
2022-10-07T16:13:04.277Z,3.00
2022-10-07T16:15:31.526Z,2.38
2022-10-07T16:17:58.734Z,2.47
2022-10-07T16:20:25.861Z,2.08
2022-10-07T16:22:53.024Z,3.38
2022-10-07T16:25:20.201Z,2.33
2022-10-07T16:28:05.896Z,2.67
2022-10-07T16:30:42.135Z,2.75
2022-10-07T16:33:09.356Z,2.10
2022-10-07T16:35:36.493Z,2.33
2022-10-07T16:38:04.217Z,2.50
2022-10-07T16:40:31.378Z,2.75
2022-10-07T16:42:59.653Z,2.50
2022-10-07T16:45:26.948Z,2.95
2022-10-07T16:47:56.543Z,2.20
2022-10-07T16:50:24.025Z,2.38
2022-10-07T16:52:51.202Z,2.10
2022-10-07T16:55:18.342Z,2.83
2022-10-07T16:57:47.976Z,1.80
2022-10-07T17:00:15.624Z,2.83
2022-10-07T17:02:42.771Z,2.28
2022-10-07T17:05:11.130Z,2.15
2022-10-07T17:07:38.328Z,2.58
2022-10-07T17:10:05.744Z,2.40
2022-10-07T17:12:33.047Z,3.58
2022-10-07T17:15:03.129Z,2.00
2022-10-07T17:17:30.485Z,2.85
2022-10-07T17:19:57.629Z,2.75
2022-10-07T17:22:24.826Z,2.47
2022-10-07T17:24:52.420Z,2.50
2022-10-07T17:27:19.552Z,2.65
2022-10-07T17:29:46.744Z,2.65
2022-10-07T17:32:14.549Z,1.92
2022-10-07T17:34:45.327Z,2.53
2022-10-07T17:37:12.790Z,2.00
2022-10-07T17:39:39.944Z,1.95
2022-10-07T17:42:07.141Z,2.10
2022-10-07T17:44:34.294Z,2.83
2022-10-07T17:47:03.805Z,3.17
2022-10-07T17:49:31.234Z,3.10
2022-10-07T17:51:58.447Z,2.20
2022-10-07T17:54:25.782Z,2.38
2022-10-07T17:56:52.983Z,2.30
2022-10-07T17:59:20.165Z,3.00
2022-10-07T18:01:48.197Z,2.63
2022-10-07T18:04:22.417Z,2.70
2022-10-07T18:06:51.829Z,3.13
2022-10-07T18:09:19.516Z,2.70
2022-10-07T18:12:05.533Z,2.78
2022-10-07T18:17:21.130Z,2.35
2022-10-07T18:19:48.468Z,2.60
2022-10-07T18:22:15.607Z,2.00
2022-10-07T18:24:42.861Z,2.70
2022-10-07T18:27:10.061Z,2.35
2022-10-07T18:29:38.131Z,2.38
2022-10-07T18:32:06.373Z,2.45
2022-10-07T18:34:33.656Z,2.50
2022-10-07T18:37:00.901Z,2.83
2022-10-07T18:39:29.682Z,2.45
2022-10-07T18:41:58.107Z,3.17
2022-10-07T18:44:25.670Z,2.72
2022-10-07T18:46:53.246Z,2.05
2022-10-07T18:49:20.508Z,3.50
2022-10-07T18:51:50.383Z,2.85
2022-10-07T18:54:18.524Z,3.28
2022-10-07T18:56:47.201Z,2.35
2022-10-07T18:59:14.601Z,2.72
2022-10-07T19:01:43.561Z,2.38
2022-10-07T19:04:13.668Z,2.65
2022-10-07T19:06:45.952Z,3.50
2022-10-07T19:09:17.971Z,2.83
2022-10-07T19:11:45.261Z,2.60
2022-10-07T19:14:12.436Z,2.88
2022-10-07T19:16:40.570Z,4.20
2022-10-07T19:19:21.079Z,2.95
2022-10-07T19:21:49.624Z,2.20
2022-10-07T19:24:16.996Z,2.90
2022-10-07T19:26:45.895Z,2.97
2022-10-07T19:29:13.842Z,3.10
2022-10-07T19:31:42.254Z,2.67
2022-10-07T19:34:14.196Z,3.13
2022-10-07T19:36:42.452Z,3.03
2022-10-07T19:39:10.712Z,2.70
2022-10-07T19:41:38.461Z,3.22
2022-10-07T19:44:05.953Z,2.25
2022-10-07T19:46:33.744Z,2.85
2022-10-07T19:49:01.681Z,3.00
2022-10-07T19:51:30.278Z,3.53
2022-10-07T19:53:58.224Z,2.67
2022-10-07T19:56:25.551Z,2.80
2022-10-07T19:58:53.980Z,3.03
2022-10-07T20:01:22.798Z,3.00
2022-10-07T20:03:50.388Z,3.70
2022-10-07T20:06:17.572Z,3.50
2022-10-07T20:08:46.706Z,2.88
2022-10-07T20:11:14.833Z,2.92
2022-10-07T20:13:42.524Z,3.30
2022-10-07T20:16:12.389Z,3.03
2022-10-07T20:18:44.042Z,3.30
2022-10-07T20:21:13.300Z,3.60
2022-10-07T20:23:41.176Z,3.20
2022-10-07T20:26:19.056Z,3.58
2022-10-07T20:28:50.194Z,3.03
2022-10-07T20:31:19.364Z,2.72
2022-10-07T20:33:47.716Z,3.80
2022-10-07T20:36:16.309Z,2.80
2022-10-07T20:39:02.615Z,2.97
2022-10-07T20:41:49.092Z,3.30
2022-10-07T20:44:17.202Z,2.75
2022-10-07T20:46:44.736Z,3.58
2022-10-07T20:49:22.514Z,3.38
2022-10-07T20:51:49.938Z,3.30
2022-10-07T20:54:17.584Z,3.08
2022-10-07T20:56:44.844Z,3.70
2022-10-07T20:59:12.510Z,3.40
2022-10-07T21:01:44.126Z,3.13
2022-10-07T21:04:12.542Z,3.15
2022-10-07T21:06:40.176Z,2.92
2022-10-07T21:09:07.984Z,3.13
2022-10-07T21:11:35.633Z,3.22
2022-10-07T21:14:02.803Z,3.47
2022-10-07T21:16:30.812Z,3.10
2022-10-07T21:18:58.177Z,3.03
2022-10-07T21:21:25.904Z,3.67
2022-10-07T21:23:53.101Z,3.00
2022-10-07T21:26:20.825Z,3.38
2022-10-07T21:28:48.519Z,3.40
2022-10-07T21:31:17.551Z,3.20
2022-10-07T21:33:46.030Z,4.20
2022-10-07T21:36:17.193Z,4.00
2022-10-07T21:38:45.275Z,3.25
2022-10-07T21:41:13.953Z,3.35
2022-10-07T21:43:42.100Z,3.53
2022-10-07T21:46:09.591Z,3.72
2022-10-07T21:48:36.858Z,2.95
2022-10-07T21:51:09.299Z,4.30
2022-10-07T21:53:36.964Z,3.28
2022-10-07T21:56:05.458Z,4.05
2022-10-07T21:58:33.431Z,3.28
2022-10-07T22:01:04.780Z,4.57
2022-10-07T22:03:32.081Z,3.08
2022-10-07T22:06:06.236Z,3.65
2022-10-07T22:08:36.861Z,3.03
2022-10-07T22:11:09.021Z,2.90
2022-10-07T22:13:37.726Z,3.95
2022-10-07T22:16:06.290Z,3.17
2022-10-07T22:18:34.427Z,2.60
2022-10-07T22:21:03.277Z,3.25
2022-10-07T22:23:30.641Z,3.65
2022-10-07T22:26:01.330Z,3.00
2022-10-07T22:28:28.558Z,2.70
2022-10-07T22:30:55.831Z,3.60
2022-10-07T22:33:23.050Z,3.47
2022-10-07T22:35:50.185Z,3.13
2022-10-07T22:38:17.355Z,3.55
2022-10-07T22:40:44.532Z,2.95
2022-10-07T22:43:12.417Z,3.50
2022-10-07T22:45:39.618Z,2.80
2022-10-07T22:48:06.808Z,3.53
2022-10-07T22:50:34.213Z,3.10
2022-10-07T22:53:01.535Z,3.03
2022-10-07T22:55:28.710Z,3.17
2022-10-07T22:57:56.082Z,3.03
2022-10-07T23:00:23.271Z,2.72
2022-10-07T23:02:51.051Z,3.03
2022-10-07T23:05:18.577Z,3.72
2022-10-07T23:07:45.765Z,3.15
2022-10-07T23:10:12.940Z,3.35
2022-10-07T23:12:40.100Z,2.78
2022-10-07T23:15:07.417Z,2.72
2022-10-07T23:17:34.823Z,3.10
2022-10-07T23:20:02.581Z,2.45
2022-10-07T23:22:29.728Z,2.78
2022-10-07T23:24:57.490Z,2.83
2022-10-07T23:27:24.643Z,2.85
2022-10-07T23:29:51.793Z,3.30
2022-10-07T23:32:19.969Z,2.88
2022-10-07T23:34:47.107Z,2.80
2022-10-07T23:37:15.041Z,2.90
2022-10-07T23:39:42.193Z,2.83
2022-10-07T23:42:09.344Z,3.05
2022-10-07T23:44:36.758Z,3.05
2022-10-07T23:47:03.972Z,2.78
2022-10-07T23:49:31.214Z,3.55
2022-10-07T23:51:58.429Z,2.80
2022-10-07T23:54:25.623Z,3.90
2022-10-07T23:56:52.811Z,2.80
2022-10-07T23:59:19.976Z,3.83
